Time;durP1;ratioP1;P1;durP2;ratioP2;P2;SDS_P1;SDS_P2;PMS_P1;PMS_P2;Temp;Humidity;BMP_temperature;BMP_pressure;BME280_temperature;BME280_humidity;BME280_pressure;Samples;Min_cycle;Max_cycle;Signal;HPM_P1;HPM_P2
2023/06/13 00:00:44;;;;;;;0.70;0.70;;;;;;;17.60;56.81;95164.41;4323292;32;20247;-66
2023/06/13 00:03:13;;;;;;;1.20;0.60;;;;;;;17.54;57.39;95166.53;4329811;32;20220;-66
2023/06/13 00:05:41;;;;;;;0.73;0.73;;;;;;;17.52;57.45;95163.41;4323989;32;20186;-66
2023/06/13 00:08:06;;;;;;;0.60;0.60;;;;;;;17.79;58.91;95168.03;4322450;32;20189;-66
2023/06/13 00:10:31;;;;;;;0.63;0.63;;;;;;;17.77;55.19;95161.44;4321051;32;20185;-66
2023/06/13 00:12:57;;;;;;;0.97;0.97;;;;;;;17.75;57.81;95167.16;4329004;33;20182;-66
2023/06/13 00:15:23;;;;;;;0.63;0.63;;;;;;;17.61;57.05;95161.37;4331807;32;20190;-65
2023/06/13 00:17:48;;;;;;;1.67;0.90;;;;;;;17.29;53.97;95159.69;4322942;33;20243;-66
2023/06/13 00:20:14;;;;;;;0.93;0.93;;;;;;;17.37;58.13;95158.78;4330986;32;20181;-66
2023/06/13 00:22:40;;;;;;;0.80;0.80;;;;;;;17.57;59.26;95157.03;4331644;32;20186;-66
2023/06/13 00:25:05;;;;;;;1.93;0.97;;;;;;;17.57;58.68;95152.44;4329228;32;20247;-66
2023/06/13 00:27:31;;;;;;;0.93;0.90;;;;;;;17.73;59.13;95152.50;4321164;32;20197;-66
2023/06/13 00:29:57;;;;;;;1.30;1.30;;;;;;;17.76;58.36;95149.94;4326511;32;20220;-66
2023/06/13 00:32:22;;;;;;;1.03;1.03;;;;;;;17.71;59.03;95149.38;4326479;32;20186;-66
2023/06/13 00:34:47;;;;;;;1.17;1.07;;;;;;;17.74;57.56;95144.13;4318853;33;20208;-65
2023/06/13 00:37:14;;;;;;;0.80;0.80;;;;;;;17.57;54.09;95141.72;4326818;32;20327;-66
2023/06/13 00:39:40;;;;;;;0.80;0.80;;;;;;;17.47;59.13;95140.28;4329238;32;20189;-66
2023/06/13 00:42:06;;;;;;;2.93;0.77;;;;;;;17.17;56.09;95139.84;4328021;32;20299;-66
2023/06/13 00:44:32;;;;;;;0.87;0.87;;;;;;;17.22;59.22;95141.50;4330154;32;20252;-66
2023/06/13 00:46:58;;;;;;;0.70;0.70;;;;;;;17.44;60.59;95129.47;4320539;32;20190;-65
2023/06/13 00:49:25;;;;;;;0.70;0.70;;;;;;;17.46;61.60;95119.16;4327851;33;20196;-66
2023/06/13 00:51:51;;;;;;;1.90;1.40;;;;;;;17.50;55.84;95120.06;4330684;33;20186;-66
2023/06/13 00:54:18;;;;;;;0.63;0.63;;;;;;;17.60;58.97;95108.84;4321815;33;20182;-66
2023/06/13 00:56:45;;;;;;;1.63;1.43;;;;;;;17.43;56.32;95098.41;4320613;33;20336;-66
2023/06/13 00:59:13;;;;;;;10.70;1.27;;;;;;;17.44;60.15;95108.03;4326792;32;20181;-65
2023/06/13 01:01:42;;;;;;;2.03;1.93;;;;;;;17.45;58.90;95099.63;4325088;33;20178;-66
2023/06/13 01:04:08;;;;;;;0.97;0.97;;;;;;;17.32;56.57;95108.06;4332759;32;20225;-65
2023/06/13 01:06:40;;;;;;;1.00;0.93;;;;;;;17.37;56.09;95100.56;4337644;33;20193;-65
2023/06/13 01:09:07;;;;;;;1.30;1.20;;;;;;;17.35;59.90;95096.66;4334126;33;20221;-66
2023/06/13 01:11:57;;;;;;;1.03;0.97;;;;;;;17.25;57.65;95100.59;4336578;33;20220;-66
2023/06/13 01:14:42;;;;;;;0.90;0.90;;;;;;;17.16;57.30;95091.91;4336913;32;20182;-66
2023/06/13 01:17:24;;;;;;;0.53;0.53;;;;;;;17.26;59.84;95087.97;4342466;33;20189;-66
2023/06/13 01:19:58;;;;;;;1.30;1.20;;;;;;;17.31;59.02;95087.72;4338160;32;20195;-66
2023/06/13 01:22:35;;;;;;;0.80;0.80;;;;;;;17.03;55.23;95091.19;4322057;33;20196;-67
2023/06/13 01:25:21;;;;;;;0.80;0.80;;;;;;;17.10;60.22;95090.59;4323318;33;20197;-66
2023/06/13 01:27:54;;;;;;;0.80;0.80;;;;;;;17.11;58.78;95084.09;4328179;33;20186;-67
2023/06/13 01:30:20;;;;;;;2.93;1.43;;;;;;;17.19;58.18;95085.87;4347496;32;20189;-67
2023/06/13 01:32:46;;;;;;;0.80;0.80;;;;;;;17.20;60.07;95075.94;4339055;32;20190;-66
2023/06/13 01:35:13;;;;;;;0.87;0.87;;;;;;;17.00;59.39;95073.09;4340141;32;20244;-66
2023/06/13 01:37:38;;;;;;;0.97;0.97;;;;;;;17.02;56.49;95076.22;4321539;32;20178;-66
2023/06/13 01:40:04;;;;;;;2.63;1.17;;;;;;;16.98;54.77;95075.34;4336984;32;20204;-66
2023/06/13 01:42:29;;;;;;;0.57;0.53;;;;;;;16.77;60.17;95074.72;4332978;32;20198;-66
2023/06/13 01:44:55;;;;;;;0.47;0.47;;;;;;;16.68;57.16;95076.72;4343509;32;20247;-67
2023/06/13 01:47:30;;;;;;;1.03;0.97;;;;;;;16.89;60.60;95080.03;4343289;32;20181;-66
2023/06/13 01:50:04;;;;;;;1.03;1.03;;;;;;;16.73;58.89;95076.50;4341097;32;20251;-66
2023/06/13 01:52:38;;;;;;;0.63;0.63;;;;;;;16.84;60.16;95067.66;4341877;32;20260;-66
2023/06/13 01:55:12;;;;;;;0.73;0.73;;;;;;;16.78;60.18;95066.34;4331948;32;20186;-66
2023/06/13 01:57:43;;;;;;;0.73;0.67;;;;;;;16.82;60.61;95055.75;4333232;32;20189;-66
2023/06/13 02:00:11;;;;;;;2.90;1.33;;;;;;;16.69;58.19;95067.59;4338423;32;20184;-66
2023/06/13 02:02:38;;;;;;;0.80;0.80;;;;;;;16.89;59.66;95063.19;4332694;32;20208;-66
2023/06/13 02:05:04;;;;;;;0.30;0.30;;;;;;;16.92;58.93;95060.59;4340785;32;20209;-66
2023/06/13 02:07:31;;;;;;;1.30;1.10;;;;;;;16.63;57.00;95063.53;4331671;33;20229;-66
2023/06/13 02:09:57;;;;;;;0.50;0.50;;;;;;;16.84;61.81;95066.88;4326782;32;20209;-66
2023/06/13 02:12:22;;;;;;;0.90;0.60;;;;;;;16.58;58.39;95061.13;4325627;33;20228;-66
2023/06/13 02:14:48;;;;;;;0.70;0.70;;;;;;;16.60;59.47;95048.94;4325350;32;20190;-66
2023/06/13 02:17:13;;;;;;;0.90;0.50;;;;;;;16.70;61.91;95050.41;4327050;33;20352;-66
2023/06/13 02:19:38;;;;;;;1.03;0.50;;;;;;;16.74;60.58;95049.38;4338633;32;20199;-65
2023/06/13 02:22:04;;;;;;;0.57;0.57;;;;;;;16.76;57.44;95047.16;4335363;32;20182;-66
2023/06/13 02:24:30;;;;;;;0.97;0.90;;;;;;;16.66;57.36;95047.59;4321882;32;20204;-66
2023/06/13 02:26:55;;;;;;;0.80;0.80;;;;;;;16.49;58.07;95043.25;4331499;32;20239;-66
2023/06/13 02:29:21;;;;;;;0.40;0.40;;;;;;;16.42;59.88;95037.69;4346950;32;20212;-66
2023/06/13 02:31:46;;;;;;;11.33;1.27;;;;;;;16.53;59.96;95046.03;4339111;32;20204;-66
2023/06/13 02:34:11;;;;;;;1.63;0.80;;;;;;;16.49;60.13;95037.91;4327174;32;20216;-66
2023/06/13 02:36:37;;;;;;;6.83;0.93;;;;;;;16.52;60.58;95041.81;4344395;32;20186;-67
2023/06/13 02:39:02;;;;;;;0.70;0.70;;;;;;;16.50;56.68;95044.81;4339848;32;20278;-66
2023/06/13 02:41:28;;;;;;;0.63;0.63;;;;;;;16.53;60.77;95040.69;4329954;32;20190;-66
2023/06/13 02:43:53;;;;;;;0.60;0.60;;;;;;;16.41;61.34;95033.47;4322178;32;20212;-68
2023/06/13 02:46:18;;;;;;;0.77;0.77;;;;;;;16.50;59.99;95033.31;4337818;32;20232;-66
2023/06/13 02:48:44;;;;;;;1.90;1.10;;;;;;;16.33;60.41;95034.38;4344260;32;20185;-66
2023/06/13 02:51:09;;;;;;;0.73;0.73;;;;;;;16.34;61.45;95035.91;4329596;32;20216;-66
2023/06/13 02:53:35;;;;;;;1.20;1.20;;;;;;;16.24;57.43;95028.34;4332530;33;20232;-68
2023/06/13 02:56:00;;;;;;;0.80;0.80;;;;;;;16.23;60.46;95034.03;4327607;32;20193;-68
2023/06/13 02:58:25;;;;;;;0.57;0.57;;;;;;;16.31;61.55;95030.47;4345346;32;20219;-68
2023/06/13 03:00:51;;;;;;;0.70;0.70;;;;;;;16.15;58.39;95038.38;4343329;32;20193;-68
2023/06/13 03:03:18;;;;;;;0.77;0.77;;;;;;;16.20;60.89;95030.16;4340780;32;20207;-68
2023/06/13 03:05:47;;;;;;;0.43;0.43;;;;;;;16.15;60.24;95035.72;4339230;32;20190;-67
2023/06/13 03:08:18;;;;;;;2.83;0.87;;;;;;;16.20;57.68;95027.47;4338309;32;20185;-67
2023/06/13 03:10:44;;;;;;;0.67;0.60;;;;;;;16.26;60.92;95030.69;4333035;32;20253;-68
2023/06/13 03:13:09;;;;;;;1.03;1.00;;;;;;;16.35;60.77;95034.81;4332930;32;20189;-68
2023/06/13 03:15:34;;;;;;;1.87;0.90;;;;;;;16.33;58.13;95034.38;4327757;32;20194;-68
2023/06/13 03:18:00;;;;;;;1.03;1.03;;;;;;;16.07;58.62;95025.88;4326622;33;20209;-68
2023/06/13 03:20:25;;;;;;;1.03;0.87;;;;;;;16.10;59.94;95025.22;4333540;32;20253;-68
2023/06/13 03:22:51;;;;;;;0.50;0.50;;;;;;;16.12;60.99;95039.06;4325878;33;20181;-68
2023/06/13 03:25:17;;;;;;;0.50;0.50;;;;;;;16.03;59.53;95041.06;4336758;32;20189;-67
2023/06/13 03:27:43;;;;;;;1.10;1.10;;;;;;;15.82;59.06;95035.78;4328139;32;20258;-67
2023/06/13 03:30:09;;;;;;;0.50;0.50;;;;;;;15.92;59.79;95039.94;4332019;32;20198;-67
2023/06/13 03:32:36;;;;;;;2.20;1.93;;;;;;;16.17;61.90;95046.87;4340841;32;20198;-68
2023/06/13 03:35:01;;;;;;;7.30;1.10;;;;;;;15.94;61.53;95040.41;4338662;32;20204;-68
2023/06/13 03:37:26;;;;;;;0.60;0.60;;;;;;;16.03;61.30;95046.41;4332086;32;20185;-68
2023/06/13 03:39:52;;;;;;;0.57;0.57;;;;;;;16.13;61.38;95040.63;4335056;33;20185;-67
2023/06/13 03:42:17;;;;;;;0.47;0.40;;;;;;;15.96;58.22;95052.31;4319334;33;20198;-67
2023/06/13 03:44:46;;;;;;;0.93;0.93;;;;;;;15.95;62.51;95044.63;4329337;32;20190;-68
2023/06/13 03:47:12;;;;;;;1.10;1.10;;;;;;;15.82;60.46;95047.28;4329610;32;20243;-67
2023/06/13 03:49:37;;;;;;;0.70;0.70;;;;;;;15.73;61.70;95048.50;4320416;33;20182;-67
2023/06/13 03:52:03;;;;;;;0.90;0.90;;;;;;;15.52;62.02;95045.09;4328620;32;20194;-67
2023/06/13 03:54:28;;;;;;;1.40;0.77;;;;;;;15.65;62.43;95044.81;4330534;32;20190;-67
2023/06/13 03:56:53;;;;;;;0.87;0.87;;;;;;;15.56;63.66;95044.13;4319268;32;20204;-67
2023/06/13 03:59:19;;;;;;;0.40;0.40;;;;;;;15.45;58.81;95037.59;4330651;32;20212;-67
2023/06/13 04:01:44;;;;;;;1.33;1.23;;;;;;;15.38;61.66;95042.72;4324086;33;20216;-67
2023/06/13 04:04:10;;;;;;;4.00;1.27;;;;;;;15.37;62.11;95043.84;4324844;32;20190;-67
2023/06/13 04:06:37;;;;;;;0.83;0.83;;;;;;;15.22;65.23;95034.53;4338225;32;20225;-67
2023/06/13 04:09:05;;;;;;;0.80;0.80;;;;;;;15.20;64.57;95047.44;4336466;32;20192;-67
2023/06/13 04:11:30;;;;;;;1.90;1.20;;;;;;;15.20;59.78;95052.00;4330506;32;20177;-66
2023/06/13 04:13:56;;;;;;;2.10;0.87;;;;;;;15.40;62.68;95051.19;4330877;32;20243;-67
2023/06/13 04:16:21;;;;;;;0.73;0.60;;;;;;;15.53;63.37;95052.78;4343909;32;20185;-67
2023/06/13 04:18:46;;;;;;;1.27;1.17;;;;;;;15.72;65.21;95055.75;4343893;32;20223;-67
2023/06/13 04:21:12;;;;;;;1.00;1.00;;;;;;;15.69;63.41;95048.38;4333707;32;20173;-67
2023/06/13 04:23:37;;;;;;;6.43;1.27;;;;;;;15.57;59.63;95055.63;4337389;32;20257;-67
2023/06/13 04:26:03;;;;;;;0.50;0.50;;;;;;;15.88;64.04;95047.84;4332881;32;20227;-67
2023/06/13 04:28:32;;;;;;;0.87;0.87;;;;;;;15.76;60.90;95053.19;4329146;32;20249;-67
2023/06/13 04:31:00;;;;;;;0.60;0.60;;;;;;;15.75;60.31;95051.62;4338556;32;20249;-67
2023/06/13 04:33:26;;;;;;;0.40;0.40;;;;;;;15.77;62.83;95060.91;4327429;32;20189;-67
2023/06/13 04:35:53;;;;;;;0.80;0.80;;;;;;;15.78;59.00;95057.09;4326361;32;20223;-67
2023/06/13 04:38:21;;;;;;;0.73;0.73;;;;;;;15.90;62.59;95052.88;4332368;32;20190;-68
2023/06/13 04:40:47;;;;;;;0.80;0.80;;;;;;;15.78;59.51;95065.12;4336336;32;20189;-67
2023/06/13 04:43:17;;;;;;;1.63;0.90;;;;;;;15.87;62.20;95065.00;4338486;32;20256;-67
2023/06/13 04:45:43;;;;;;;0.97;0.83;;;;;;;15.95;62.53;95063.38;4327331;32;20243;-67
2023/06/13 04:48:10;;;;;;;11.33;1.43;;;;;;;15.87;61.20;95074.94;4326102;33;20236;-67
2023/06/13 04:50:37;;;;;;;2.43;1.37;;;;;;;16.10;63.92;95074.19;4337461;32;20229;-67
2023/06/13 04:53:07;;;;;;;0.70;0.70;;;;;;;15.87;56.37;95069.59;4338407;33;20195;-67
2023/06/13 04:55:33;;;;;;;0.97;0.97;;;;;;;15.91;59.08;95075.84;4322034;32;20185;-67
2023/06/13 04:57:59;;;;;;;0.50;0.50;;;;;;;15.95;61.49;95072.16;4326393;33;20215;-67
2023/06/13 05:00:26;;;;;;;1.07;1.07;;;;;;;16.00;61.64;95063.16;4332301;32;20247;-67
2023/06/13 05:02:55;;;;;;;0.97;0.97;;;;;;;15.86;58.31;95065.34;4339103;32;20188;-68
2023/06/13 05:05:22;;;;;;;1.47;1.17;;;;;;;15.87;62.18;95059.66;4330576;32;20200;-68
2023/06/13 05:07:49;;;;;;;0.50;0.50;;;;;;;15.96;56.97;95062.25;4336982;32;20255;-67
2023/06/13 05:10:15;;;;;;;0.50;0.50;;;;;;;16.06;61.31;95056.44;4335124;32;20276;-67
2023/06/13 05:12:40;;;;;;;0.90;0.90;;;;;;;15.99;57.42;95065.03;4340087;32;20236;-67
2023/06/13 05:15:06;;;;;;;1.20;1.10;;;;;;;15.90;53.23;95069.69;4348682;32;20185;-67
2023/06/13 05:17:31;;;;;;;0.83;0.83;;;;;;;15.95;56.38;95069.50;4333128;32;20190;-68
2023/06/13 05:19:57;;;;;;;4.90;1.47;;;;;;;15.99;56.11;95066.94;4338522;32;20201;-67
2023/06/13 05:22:22;;;;;;;1.60;1.50;;;;;;;16.12;58.47;95071.16;4326576;32;20200;-67
2023/06/13 05:24:48;;;;;;;1.20;1.10;;;;;;;16.28;58.40;95068.59;4330246;32;20231;-67
2023/06/13 05:27:13;;;;;;;0.70;0.70;;;;;;;16.24;55.56;95071.16;4324248;32;21844;-67
2023/06/13 05:29:39;;;;;;;0.33;0.33;;;;;;;16.13;53.86;95070.06;4340391;32;20240;-68
2023/06/13 05:32:05;;;;;;;1.17;1.17;;;;;;;16.09;52.13;95072.63;4340893;32;20242;-68
2023/06/13 05:34:31;;;;;;;0.60;0.60;;;;;;;16.22;55.17;95069.94;4338857;32;20197;-68
2023/06/13 05:36:56;;;;;;;0.67;0.67;;;;;;;16.38;56.90;95071.63;4344286;32;20225;-68
2023/06/13 05:39:22;;;;;;;0.70;0.70;;;;;;;16.44;52.64;95059.56;4344086;32;20212;-67
2023/06/13 05:41:47;;;;;;;0.77;0.77;;;;;;;16.39;51.81;95064.38;4340379;32;20186;-68
2023/06/13 05:44:13;;;;;;;0.50;0.50;;;;;;;16.52;54.99;95062.44;4323884;32;20216;-67
2023/06/13 05:46:38;;;;;;;0.83;0.83;;;;;;;16.48;51.38;95067.69;4330008;33;20252;-67
2023/06/13 05:49:03;;;;;;;5.67;2.30;;;;;;;16.50;50.50;95065.47;4330961;32;20185;-67
2023/06/13 05:51:29;;;;;;;3.70;1.33;;;;;;;16.54;52.41;95061.00;4328065;33;20197;-67
2023/06/13 05:53:54;;;;;;;0.40;0.40;;;;;;;16.54;50.06;95054.87;4341731;32;20244;-67
2023/06/13 05:56:20;;;;;;;0.50;0.50;;;;;;;16.47;52.83;95058.88;4349407;32;20240;-67
2023/06/13 05:58:45;;;;;;;0.57;0.57;;;;;;;16.48;50.50;95059.66;4321476;32;20231;-66
2023/06/13 06:01:10;;;;;;;1.47;1.00;;;;;;;16.60;48.44;95058.88;4324660;32;20212;-67
2023/06/13 06:03:37;;;;;;;1.47;1.07;;;;;;;16.72;51.98;95061.56;4317690;33;20251;-66
2023/06/13 06:06:02;;;;;;;0.67;0.67;;;;;;;16.91;52.28;95059.03;4323458;32;20202;-66
2023/06/13 06:08:28;;;;;;;0.70;0.70;;;;;;;16.85;49.73;95060.41;4334184;32;20193;-66
2023/06/13 06:10:53;;;;;;;0.70;0.70;;;;;;;16.80;47.45;95076.72;4335822;32;20197;-67
2023/06/13 06:13:19;;;;;;;9.00;1.20;;;;;;;16.82;47.25;95072.59;4338356;32;20204;-67
2023/06/13 06:15:44;;;;;;;0.90;0.90;;;;;;;16.96;47.02;95077.56;4343845;32;20328;-67
2023/06/13 06:18:09;;;;;;;3.47;1.73;;;;;;;16.72;46.35;95072.28;4320732;32;20248;-65
2023/06/13 06:20:35;;;;;;;4.03;2.53;;;;;;;16.70;46.07;95077.19;4331225;33;20249;-66
2023/06/13 06:23:00;;;;;;;1.40;1.17;;;;;;;16.84;46.53;95075.69;4339116;32;20239;-66
2023/06/13 06:25:25;;;;;;;0.67;0.67;;;;;;;16.89;45.70;95066.62;4321880;32;20213;-67
2023/06/13 06:27:51;;;;;;;0.80;0.80;;;;;;;17.04;44.93;95070.53;4340230;32;20190;-66
2023/06/13 06:30:16;;;;;;;4.93;1.23;;;;;;;16.88;45.40;95062.41;4330755;32;20253;-66
2023/06/13 06:32:42;;;;;;;0.70;0.70;;;;;;;16.92;46.22;95065.19;4336698;32;20231;-67
2023/06/13 06:35:09;;;;;;;0.70;0.70;;;;;;;16.98;45.31;95069.97;4322058;32;20185;-67
2023/06/13 06:37:35;;;;;;;0.90;0.90;;;;;;;17.11;44.77;95068.81;4334038;32;20200;-67
2023/06/13 06:40:01;;;;;;;0.30;0.30;;;;;;;17.13;44.08;95053.16;4341325;32;20182;-67
2023/06/13 06:42:26;;;;;;;0.73;0.73;;;;;;;17.25;43.81;95067.66;4332282;32;20225;-67
2023/06/13 06:44:52;;;;;;;0.30;0.30;;;;;;;17.31;44.29;95072.41;4334821;33;20193;-67
2023/06/13 06:47:17;;;;;;;0.43;0.43;;;;;;;17.28;45.34;95059.69;4322935;32;20228;-67
2023/06/13 06:49:43;;;;;;;0.90;0.90;;;;;;;17.40;44.13;95064.22;4325605;33;20264;-66
2023/06/13 06:52:08;;;;;;;0.90;0.90;;;;;;;17.36;43.67;95068.72;4336669;32;20208;-67
2023/06/13 06:54:34;;;;;;;0.60;0.60;;;;;;;17.39;43.95;95065.34;4347949;32;20189;-67
2023/06/13 06:57:00;;;;;;;0.87;0.87;;;;;;;17.59;44.43;95072.41;4341290;32;20237;-67
2023/06/13 06:59:25;;;;;;;0.93;0.93;;;;;;;17.56;44.34;95062.34;4340329;32;20190;-67
2023/06/13 07:01:51;;;;;;;0.90;0.90;;;;;;;17.61;44.35;95069.37;4329811;32;20193;-67
2023/06/13 07:04:16;;;;;;;0.20;0.20;;;;;;;17.68;43.48;95064.22;4328927;32;20204;-67
2023/06/13 07:06:42;;;;;;;0.70;0.70;;;;;;;17.97;43.81;95068.41;4345562;32;20242;-67
2023/06/13 07:09:09;;;;;;;0.60;0.60;;;;;;;18.08;43.27;95061.41;4340518;32;20185;-67
2023/06/13 07:11:34;;;;;;;1.20;1.20;;;;;;;17.97;43.60;95063.03;4327972;32;20181;-66
2023/06/13 07:14:00;;;;;;;0.43;0.43;;;;;;;18.05;43.57;95067.47;4333693;32;20253;-67
2023/06/13 07:16:25;;;;;;;0.20;0.20;;;;;;;18.20;43.30;95063.97;4337598;32;20208;-67
2023/06/13 07:18:51;;;;;;;1.20;1.17;;;;;;;18.36;42.46;95055.91;4331482;32;20268;-67
2023/06/13 07:21:16;;;;;;;0.67;0.67;;;;;;;18.46;42.88;95061.53;4339418;32;20209;-68
2023/06/13 07:23:42;;;;;;;0.70;0.70;;;;;;;18.44;42.73;95071.84;4336630;32;20285;-68
2023/06/13 07:26:07;;;;;;;6.97;1.50;;;;;;;18.33;43.13;95065.44;4332929;32;20204;-66
2023/06/13 07:28:32;;;;;;;0.70;0.70;;;;;;;18.39;43.78;95065.94;4326656;32;20202;-66
2023/06/13 07:30:58;;;;;;;2.30;0.90;;;;;;;18.41;43.15;95061.78;4339101;32;20197;-66
2023/06/13 07:33:24;;;;;;;0.30;0.30;;;;;;;18.46;42.52;95071.50;4343318;32;20261;-67
2023/06/13 07:35:50;;;;;;;0.60;0.60;;;;;;;18.53;42.63;95071.63;4341636;32;20201;-67
2023/06/13 07:38:15;;;;;;;0.90;0.83;;;;;;;18.38;43.51;95054.44;4339689;32;20253;-67
2023/06/13 07:40:41;;;;;;;0.30;0.30;;;;;;;18.20;43.50;95072.03;4345256;32;20220;-67
2023/06/13 07:43:06;;;;;;;1.00;1.00;;;;;;;18.20;43.46;95058.59;4338410;32;20257;-66
2023/06/13 07:45:31;;;;;;;0.73;0.73;;;;;;;18.32;43.25;95060.41;4325889;32;20200;-66
2023/06/13 07:47:57;;;;;;;0.70;0.70;;;;;;;18.28;42.92;95059.56;4330505;32;20208;-65
2023/06/13 07:50:23;;;;;;;0.37;0.37;;;;;;;18.26;43.13;95065.28;4324142;32;20462;-65
2023/06/13 07:52:48;;;;;;;0.70;0.70;;;;;;;18.30;43.13;95049.22;4339179;32;20190;-65
2023/06/13 07:55:14;;;;;;;0.53;0.53;;;;;;;18.33;43.77;95057.38;4324181;32;20201;-66
2023/06/13 07:57:40;;;;;;;0.70;0.70;;;;;;;18.33;42.74;95057.38;4338252;32;20200;-64
2023/06/13 08:00:16;;;;;;;0.83;0.83;;;;;;;18.43;42.48;95062.22;4320315;33;20189;-68
2023/06/13 08:02:45;;;;;;;0.83;0.83;;;;;;;18.43;43.29;95048.00;4338059;32;20181;-67
2023/06/13 08:05:15;;;;;;;1.00;0.90;;;;;;;18.41;42.61;95048.34;4346145;32;20190;-65
2023/06/13 08:07:40;;;;;;;0.80;0.80;;;;;;;18.55;42.40;95047.88;4332761;32;20200;-65
2023/06/13 08:10:06;;;;;;;1.03;0.60;;;;;;;18.44;42.37;95047.66;4343274;32;20182;-65
2023/06/13 08:12:32;;;;;;;0.70;0.70;;;;;;;18.60;42.42;95049.56;4328388;32;20234;-65
2023/06/13 08:14:57;;;;;;;0.97;0.73;;;;;;;18.67;42.52;95039.75;4326906;32;20315;-66
2023/06/13 08:17:24;;;;;;;0.70;0.70;;;;;;;18.44;42.24;95047.66;4344538;32;20276;-66
2023/06/13 08:19:50;;;;;;;0.63;0.63;;;;;;;18.52;43.81;95046.69;4342937;32;20292;-66
2023/06/13 08:22:16;;;;;;;0.43;0.43;;;;;;;18.65;43.13;95050.06;4332965;32;20244;-66
2023/06/13 08:24:42;;;;;;;0.40;0.40;;;;;;;18.77;41.93;95051.84;4335051;32;20189;-66
2023/06/13 08:27:07;;;;;;;1.07;1.03;;;;;;;18.73;41.46;95056.38;4344868;32;20227;-65
2023/06/13 08:29:33;;;;;;;0.87;0.87;;;;;;;18.65;41.44;95047.37;4326344;32;20253;-65
2023/06/13 08:31:59;;;;;;;1.40;0.43;;;;;;;18.66;42.76;95058.91;4324874;33;20202;-65
2023/06/13 08:34:26;;;;;;;0.50;0.50;;;;;;;18.62;41.53;95061.53;4332651;32;20231;-65
2023/06/13 08:36:51;;;;;;;0.70;0.70;;;;;;;18.69;41.39;95058.22;4319066;32;20198;-65
2023/06/13 08:39:17;;;;;;;2.30;1.00;;;;;;;18.72;41.44;95052.13;4340210;32;20215;-65
2023/06/13 08:41:43;;;;;;;0.70;0.70;;;;;;;18.81;40.88;95058.88;4314667;33;20186;-65
2023/06/13 08:44:09;;;;;;;1.17;0.73;;;;;;;18.77;41.63;95051.84;4326784;33;20190;-65
2023/06/13 08:46:36;;;;;;;1.03;1.03;;;;;;;18.83;41.25;95058.50;4329077;32;20334;-65
2023/06/13 08:49:02;;;;;;;0.20;0.20;;;;;;;18.97;41.72;95058.81;4319707;32;20220;-65
2023/06/13 08:51:30;;;;;;;0.90;0.90;;;;;;;19.08;40.78;95065.19;4334148;32;20252;-65
2023/06/13 08:53:59;;;;;;;0.47;0.47;;;;;;;19.03;39.40;95070.84;4327311;32;20201;-65
2023/06/13 08:56:27;;;;;;;0.30;0.30;;;;;;;18.84;39.81;95065.44;4334306;32;20190;-66
2023/06/13 08:59:08;;;;;;;1.07;1.00;;;;;;;18.78;40.26;95066.84;4341933;32;20246;-66
2023/06/13 09:01:37;;;;;;;1.10;1.00;;;;;;;18.87;39.83;95062.06;4341429;32;20181;-65
2023/06/13 09:04:06;;;;;;;0.97;0.97;;;;;;;18.88;40.81;95066.31;4325357;33;20201;-66
2023/06/13 09:06:33;;;;;;;0.37;0.37;;;;;;;18.93;40.28;95060.63;4346383;32;20193;-66
2023/06/13 09:09:00;;;;;;;0.60;0.60;;;;;;;18.94;39.47;95059.50;4319401;33;20198;-66
2023/06/13 09:11:27;;;;;;;0.80;0.57;;;;;;;18.96;39.71;95062.63;4332362;32;20229;-66
2023/06/13 09:13:55;;;;;;;0.90;0.90;;;;;;;19.05;39.34;95057.81;4326842;33;20241;-66
2023/06/13 09:16:21;;;;;;;0.73;0.73;;;;;;;19.18;39.28;95061.94;4345311;32;20211;-66
2023/06/13 09:18:49;;;;;;;0.40;0.40;;;;;;;19.13;38.45;95059.50;4343202;32;20330;-66
2023/06/13 09:21:16;;;;;;;0.43;0.43;;;;;;;19.01;38.38;95065.03;4326700;33;20173;-66
2023/06/13 09:23:42;;;;;;;0.50;0.50;;;;;;;19.08;38.45;95056.34;4339727;32;20225;-67
2023/06/13 09:26:09;;;;;;;0.60;0.60;;;;;;;19.28;38.08;95062.50;4325708;32;20194;-66
2023/06/13 09:28:40;;;;;;;0.67;0.67;;;;;;;19.32;37.86;95056.06;4329777;32;20185;-66
2023/06/13 09:31:07;;;;;;;1.30;0.73;;;;;;;19.22;37.59;95053.94;4332095;32;20200;-66
2023/06/13 09:33:33;;;;;;;0.40;0.40;;;;;;;19.29;37.98;95056.78;4338027;32;20206;-66
2023/06/13 09:35:58;;;;;;;1.07;0.97;;;;;;;19.28;37.64;95049.84;4324265;32;20215;-66
2023/06/13 09:38:24;;;;;;;0.40;0.40;;;;;;;19.39;37.25;95050.03;4341687;33;20186;-66
2023/06/13 09:40:55;;;;;;;0.63;0.63;;;;;;;19.42;37.27;95044.72;4337346;32;20200;-66
2023/06/13 09:43:22;;;;;;;0.60;0.60;;;;;;;19.34;36.95;95044.91;4327083;33;20259;-66
2023/06/13 09:45:50;;;;;;;0.63;0.63;;;;;;;19.44;35.75;95038.97;4337623;32;20245;-66
2023/06/13 09:48:16;;;;;;;1.00;1.00;;;;;;;19.37;36.08;95038.84;4328660;33;20212;-66
2023/06/13 09:50:42;;;;;;;2.77;1.30;;;;;;;19.58;36.31;95033.09;4321990;33;20185;-66
2023/06/13 09:53:08;;;;;;;0.67;0.67;;;;;;;19.62;36.51;95034.72;4341670;32;20279;-66
2023/06/13 09:55:34;;;;;;;3.00;1.33;;;;;;;19.83;35.67;95026.22;4342753;32;20237;-66
2023/06/13 09:58:01;;;;;;;0.83;0.83;;;;;;;19.97;34.66;95028.38;4343268;32;20201;-66
2023/06/13 10:00:28;;;;;;;0.57;0.57;;;;;;;20.09;34.94;95020.12;4337218;32;20194;-66
2023/06/13 10:02:53;;;;;;;2.20;2.00;;;;;;;20.10;33.93;95025.16;4344613;32;20189;-65
2023/06/13 10:05:20;;;;;;;4.13;1.40;;;;;;;19.99;33.75;95026.88;4336070;32;20233;-66
2023/06/13 10:07:45;;;;;;;0.47;0.47;;;;;;;19.94;33.38;95029.13;4334709;32;20185;-66
2023/06/13 10:10:10;;;;;;;1.13;1.13;;;;;;;19.97;33.43;95012.22;4340879;32;20200;-66
2023/06/13 10:12:43;;;;;;;0.50;0.50;;;;;;;20.03;34.09;95016.16;4328758;32;20197;-66
2023/06/13 10:15:12;;;;;;;0.63;0.63;;;;;;;20.06;34.50;95021.63;4331885;32;20204;-66
2023/06/13 10:17:42;;;;;;;0.60;0.60;;;;;;;20.22;33.03;95010.69;4335853;32;20298;-66
2023/06/13 10:20:10;;;;;;;0.43;0.43;;;;;;;20.27;32.43;95018.47;4329754;32;20328;-66
2023/06/13 10:22:39;;;;;;;1.53;1.43;;;;;;;20.15;32.24;95013.31;4322107;33;20189;-66
2023/06/13 10:25:10;;;;;;;0.73;0.73;;;;;;;20.17;33.10;95013.69;4329975;32;20198;-66
2023/06/13 10:27:41;;;;;;;0.60;0.60;;;;;;;20.28;32.39;95024.63;4326042;32;20193;-66
2023/06/13 10:30:28;;;;;;;0.67;0.57;;;;;;;20.10;32.62;95016.28;4336241;32;20195;-66
2023/06/13 10:33:18;;;;;;;0.67;0.67;;;;;;;20.39;32.76;95017.50;4339674;32;20190;-66
2023/06/13 10:35:49;;;;;;;0.97;0.97;;;;;;;20.53;31.83;95013.12;4331688;33;20257;-66
2023/06/13 10:38:42;;;;;;;0.70;0.70;;;;;;;20.42;31.82;95020.25;4332630;32;20200;-66
2023/06/13 10:41:37;;;;;;;0.60;0.60;;;;;;;20.37;32.41;95017.13;4337518;32;20326;-66
2023/06/13 10:44:08;;;;;;;1.10;1.00;;;;;;;20.38;31.51;95013.25;4342560;32;20261;-66
2023/06/13 10:46:34;;;;;;;0.63;0.63;;;;;;;20.40;31.86;95002.91;4342643;32;20227;-66
2023/06/13 10:49:00;;;;;;;1.00;0.93;;;;;;;20.42;32.27;95006.78;4328022;33;20194;-66
2023/06/13 10:51:27;;;;;;;0.50;0.50;;;;;;;20.41;32.07;95005.22;4330398;32;20181;-66
2023/06/13 10:54:09;;;;;;;0.77;0.70;;;;;;;20.53;32.48;95005.03;4330772;32;20196;-65
2023/06/13 10:56:39;;;;;;;0.30;0.30;;;;;;;20.55;32.14;94994.66;4338600;32;20184;-66
2023/06/13 10:59:06;;;;;;;0.87;0.53;;;;;;;20.59;31.78;94998.16;4343192;32;20177;-66
2023/06/13 11:01:36;;;;;;;0.40;0.40;;;;;;;20.61;32.03;95003.19;4337959;32;20186;-66
2023/06/13 11:04:19;;;;;;;0.40;0.40;;;;;;;20.61;32.06;94994.31;4344733;32;20197;-66
2023/06/13 11:06:47;;;;;;;0.50;0.50;;;;;;;20.69;32.14;95004.06;4338801;32;20212;-66
2023/06/13 11:09:24;;;;;;;0.87;0.87;;;;;;;20.82;31.31;94997.31;4339140;32;20193;-66
2023/06/13 11:11:54;;;;;;;1.37;0.80;;;;;;;20.73;31.24;94989.50;4331866;32;20198;-66
2023/06/13 11:14:37;;;;;;;0.80;0.80;;;;;;;20.80;31.20;94978.00;4340949;32;20185;-65
2023/06/13 11:17:03;;;;;;;0.23;0.23;;;;;;;20.86;31.06;94976.56;4320961;33;20204;-66
2023/06/13 11:19:28;;;;;;;2.63;0.93;;;;;;;20.82;31.26;94981.13;4326574;33;20204;-66
2023/06/13 11:22:00;;;;;;;0.63;0.63;;;;;;;20.93;31.80;94979.34;4331658;32;20181;-65
2023/06/13 11:24:30;;;;;;;0.63;0.63;;;;;;;20.87;31.49;94978.87;4340795;32;20190;-66
2023/06/13 11:26:57;;;;;;;0.77;0.53;;;;;;;20.89;31.74;94975.81;4330029;32;20189;-66
2023/06/13 11:29:23;;;;;;;0.73;0.73;;;;;;;20.84;31.52;94978.84;4328644;32;20209;-66
2023/06/13 11:31:53;;;;;;;0.43;0.43;;;;;;;20.84;32.17;94978.84;4321947;32;20261;-66
2023/06/13 11:34:23;;;;;;;0.80;0.80;;;;;;;20.90;30.87;94969.28;4343190;32;20291;-66